Time;durP1;ratioP1;P1;durP2;ratioP2;P2;SDS_P1;SDS_P2;PMS_P1;PMS_P2;Temp;Humidity;BMP_temperature;BMP_pressure;BME280_temperature;BME280_humidity;BME280_pressure;Samples;Min_cycle;Max_cycle;Signal;HPM_P1;HPM_P2
2023/03/24 00:00:28;;;;;;;;;;;;;;;23.53;32.23;100909.41;5097059;28;1108;-14
2023/03/24 00:02:55;;;;;;;;;;;;;;;23.58;32.30;100912.47;5091257;28;990;-14
2023/03/24 00:05:21;;;;;;;;;;;;;;;23.58;32.31;100908.94;5077483;28;1122;-14
2023/03/24 00:07:47;;;;;;;;;;;;;;;23.50;32.40;100909.72;5076695;28;1081;-15
2023/03/24 00:10:16;;;;;;;;;;;;;;;23.49;32.18;100913.38;5090286;28;1050;-15
2023/03/24 00:12:42;;;;;;;;;;;;;;;23.50;32.42;100906.19;5097484;28;1022;-14
2023/03/24 00:15:09;;;;;;;;;;;;;;;23.52;32.39;100904.19;5096640;28;1043;-14
2023/03/24 00:17:35;;;;;;;;;;;;;;;23.47;32.43;100899.28;5077489;28;1170;-14
2023/03/24 00:20:13;;;;;;;;;;;;;;;23.43;32.36;100901.44;5083151;28;1981;-14
2023/03/24 00:22:48;;;;;;;;;;;;;;;23.47;32.31;100901.97;5085471;28;1050;-14
2023/03/24 00:25:14;;;;;;;;;;;;;;;23.38;32.51;100898.34;5097083;28;1098;-15
2023/03/24 00:27:40;;;;;;;;;;;;;;;23.51;32.24;100900.66;5096747;28;1054;-14
2023/03/24 00:30:07;;;;;;;;;;;;;;;23.39;32.60;100907.25;5096211;28;1109;-15
2023/03/24 00:32:35;;;;;;;;;;;;;;;23.45;32.35;100906.66;5078618;28;1620;-14
2023/03/24 00:35:01;;;;;;;;;;;;;;;23.48;32.26;100899.13;5096630;28;1030;-14
2023/03/24 00:37:27;;;;;;;;;;;;;;;23.45;32.37;100901.28;5096385;28;1154;-14
2023/03/24 00:39:53;;;;;;;;;;;;;;;23.46;32.26;100893.06;5073789;28;1910;-15
2023/03/24 00:42:18;;;;;;;;;;;;;;;23.43;32.24;100901.44;5082336;28;1042;-14
2023/03/24 00:44:44;;;;;;;;;;;;;;;23.47;32.20;100897.44;5095450;28;1069;-15
2023/03/24 00:47:10;;;;;;;;;;;;;;;23.49;32.14;100894.59;5086614;28;1042;-15
2023/03/24 00:49:41;;;;;;;;;;;;;;;23.51;32.30;100895.28;5089931;28;1039;-15
2023/03/24 00:52:20;;;;;;;;;;;;;;;23.43;32.28;100884.47;5087039;28;1059;-14
2023/03/24 00:54:46;;;;;;;;;;;;;;;23.43;32.26;100882.63;5074881;28;1118;-14
2023/03/24 00:57:13;;;;;;;;;;;;;;;23.39;32.38;100883.91;5065908;28;1209;-14
2023/03/24 00:59:47;;;;;;;;;;;;;;;23.36;32.31;100876.16;5071220;28;1913;-15
2023/03/24 01:02:13;;;;;;;;;;;;;;;23.42;32.23;100872.88;5090291;28;996;-14
2023/03/24 01:04:40;;;;;;;;;;;;;;;23.42;32.29;100878.25;5058221;28;1237;-14
2023/03/24 01:07:06;;;;;;;;;;;;;;;23.38;32.42;100878.69;5071210;28;1192;-14
2023/03/24 01:09:35;;;;;;;;;;;;;;;23.38;32.36;100876.84;5076229;28;1173;-14
2023/03/24 01:12:02;;;;;;;;;;;;;;;23.44;32.20;100878.94;5089554;28;1119;-14
2023/03/24 01:14:28;;;;;;;;;;;;;;;23.44;32.15;100870.88;5084138;28;1070;-14
2023/03/24 01:16:54;;;;;;;;;;;;;;;23.38;32.29;100876.00;5082168;28;1235;-15
2023/03/24 01:19:20;;;;;;;;;;;;;;;23.42;32.30;100870.19;5092132;28;1957;-14
2023/03/24 01:21:47;;;;;;;;;;;;;;;23.40;32.22;100868.69;5082290;28;1138;-14
2023/03/24 01:24:12;;;;;;;;;;;;;;;23.38;32.31;100873.31;5087780;28;1006;-15
2023/03/24 01:26:38;;;;;;;;;;;;;;;23.42;32.39;100877.44;5091166;28;1040;-15
2023/03/24 01:29:04;;;;;;;;;;;;;;;23.42;32.38;100870.19;5087591;28;1062;-15
2023/03/24 01:31:30;;;;;;;;;;;;;;;23.39;32.31;100877.72;5088196;28;1213;-15
2023/03/24 01:33:56;;;;;;;;;;;;;;;23.35;32.36;100880.72;5069451;28;1330;-15
2023/03/24 01:36:21;;;;;;;;;;;;;;;23.35;32.45;100874.47;5093266;28;1209;-14
2023/03/24 01:38:47;;;;;;;;;;;;;;;23.40;32.29;100871.38;5075864;28;1901;-14
2023/03/24 01:41:12;;;;;;;;;;;;;;;23.32;32.28;100870.25;5091605;28;1086;-14
2023/03/24 01:43:38;;;;;;;;;;;;;;;23.39;32.30;100873.16;5068689;28;845;-14
2023/03/24 01:46:06;;;;;;;;;;;;;;;23.34;32.30;100870.09;5089346;28;1063;-14
2023/03/24 01:48:50;;;;;;;;;;;;;;;23.30;32.43;100872.28;5083853;28;1133;-14
2023/03/24 01:51:22;;;;;;;;;;;;;;;23.30;32.41;100868.72;5093687;28;1054;-15
2023/03/24 01:54:07;;;;;;;;;;;;;;;23.33;32.26;100874.63;5091392;28;1047;-15
2023/03/24 01:56:34;;;;;;;;;;;;;;;23.32;32.31;100880.16;5068910;28;1291;-14
2023/03/24 01:59:02;;;;;;;;;;;;;;;23.32;32.26;100878.31;5064908;28;1981;-14
2023/03/24 02:02:01;;;;;;;;;;;;;;;23.32;32.36;100874.78;5082696;28;1246;-14
2023/03/24 02:04:42;;;;;;;;;;;;;;;23.33;32.42;100879.16;5075008;28;1265;-14
2023/03/24 02:07:19;;;;;;;;;;;;;;;23.28;32.41;100870.72;5074215;28;1310;-14
2023/03/24 02:09:45;;;;;;;;;;;;;;;23.30;32.49;100877.63;5061567;28;1161;-14
2023/03/24 02:12:10;;;;;;;;;;;;;;;23.39;32.28;100875.03;5079272;28;1235;-14
2023/03/24 02:14:36;;;;;;;;;;;;;;;23.33;32.45;100879.16;5070301;28;1142;-15
2023/03/24 02:17:20;;;;;;;;;;;;;;;23.29;32.48;100872.44;5064352;28;1139;-14
2023/03/24 02:19:55;;;;;;;;;;;;;;;23.36;32.36;100878.84;5081167;28;1978;-15
2023/03/24 02:22:21;;;;;;;;;;;;;;;23.28;32.44;100887.69;5080942;28;1278;-14
2023/03/24 02:24:58;;;;;;;;;;;;;;;23.31;32.35;100892.72;5086996;28;1046;-14
2023/03/24 02:27:33;;;;;;;;;;;;;;;23.32;32.34;100891.72;5061144;28;1401;-14
2023/03/24 02:29:59;;;;;;;;;;;;;;;23.26;32.40;100903.09;5074021;28;1082;-14
2023/03/24 02:32:43;;;;;;;;;;;;;;;23.31;32.32;100900.78;5076810;28;1553;-14
2023/03/24 02:35:14;;;;;;;;;;;;;;;23.32;32.14;100904.31;5071541;28;1135;-14
2023/03/24 02:37:41;;;;;;;;;;;;;;;23.32;32.27;100899.78;5072893;28;1233;-14
2023/03/24 02:40:28;;;;;;;;;;;;;;;23.29;32.38;100910.81;5067590;28;1313;-14
2023/03/24 02:42:54;;;;;;;;;;;;;;;23.33;32.32;100909.53;5067715;28;1260;-14
2023/03/24 02:45:38;;;;;;;;;;;;;;;23.32;32.32;100912.38;5072000;28;1271;-14
2023/03/24 02:48:15;;;;;;;;;;;;;;;23.32;32.26;100915.06;5061354;28;1157;-15
2023/03/24 02:50:40;;;;;;;;;;;;;;;23.29;32.25;100912.69;5073338;28;1233;-14
2023/03/24 02:53:25;;;;;;;;;;;;;;;23.29;32.26;100913.50;5085270;28;1206;-14
2023/03/24 02:56:32;;;;;;;;;;;;;;;23.29;32.39;100915.38;5080131;28;1210;-14
2023/03/24 02:59:09;;;;;;;;;;;;;;;23.29;32.40;100907.31;5080059;28;1914;-14
2023/03/24 03:01:40;;;;;;;;;;;;;;;23.27;32.35;100909.31;5080450;28;1283;-14
2023/03/24 03:04:32;;;;;;;;;;;;;;;23.20;32.57;100912.59;5085351;28;1317;-15
2023/03/24 03:06:58;;;;;;;;;;;;;;;23.28;32.32;100921.72;5068220;28;1179;-14
2023/03/24 03:09:24;;;;;;;;;;;;;;;23.25;32.56;100922.88;5066969;28;1075;-14
2023/03/24 03:11:52;;;;;;;;;;;;;;;23.22;32.47;100920.50;5063808;28;1245;-15
2023/03/24 03:14:18;;;;;;;;;;;;;;;23.31;32.21;100916.88;5073265;28;1333;-14
2023/03/24 03:16:58;;;;;;;;;;;;;;;23.28;32.44;100921.72;5078064;28;1202;-15
2023/03/24 03:19:37;;;;;;;;;;;;;;;23.24;32.35;100918.50;5069180;28;1906;-14
2023/03/24 03:22:03;;;;;;;;;;;;;;;23.23;32.27;100914.13;5062937;28;1051;-13
2023/03/24 03:24:30;;;;;;;;;;;;;;;23.25;32.30;100912.16;5080543;28;1214;-14
2023/03/24 03:26:57;;;;;;;;;;;;;;;23.24;32.27;100905.91;5098351;28;1071;-15
2023/03/24 03:29:24;;;;;;;;;;;;;;;23.27;32.35;100903.94;5079674;28;1050;-14
2023/03/24 03:31:52;;;;;;;;;;;;;;;23.24;32.40;100897.88;5094985;28;1114;-14
2023/03/24 03:34:20;;;;;;;;;;;;;;;23.21;32.45;100894.63;5071023;28;1114;-14
2023/03/24 03:36:52;;;;;;;;;;;;;;;23.28;32.27;100892.19;5092463;28;1169;-14
2023/03/24 03:39:23;;;;;;;;;;;;;;;23.34;32.18;100894.25;5073056;28;1902;-14
2023/03/24 03:41:49;;;;;;;;;;;;;;;23.19;32.57;100881.38;5090529;28;1058;-14
2023/03/24 03:44:14;;;;;;;;;;;;;;;23.21;32.26;100881.22;5072892;28;1122;-14
2023/03/24 03:46:40;;;;;;;;;;;;;;;23.26;32.29;100878.06;5073634;28;1122;-14
2023/03/24 03:49:08;;;;;;;;;;;;;;;23.20;32.31;100885.78;5073079;28;1329;-14
2023/03/24 03:51:34;;;;;;;;;;;;;;;23.17;32.38;100888.72;5065887;28;1201;-14
2023/03/24 03:54:00;;;;;;;;;;;;;;;23.20;32.50;100888.44;5066507;28;1095;-14
2023/03/24 03:56:28;;;;;;;;;;;;;;;23.27;32.13;100888.69;5058554;28;1183;-14
2023/03/24 03:59:27;;;;;;;;;;;;;;;23.28;32.19;100884.13;5078795;28;1906;-15
2023/03/24 04:01:53;;;;;;;;;;;;;;;23.21;32.30;100889.28;5078784;28;2189;-14
2023/03/24 04:04:37;;;;;;;;;;;;;;;23.27;32.16;100886.00;5066193;28;1111;-14
2023/03/24 04:07:35;;;;;;;;;;;;;;;23.23;32.19;100885.47;5063240;28;1247;-14
2023/03/24 04:10:28;;;;;;;;;;;;;;;23.22;32.32;100872.19;5077791;28;1278;-14
2023/03/24 04:13:07;;;;;;;;;;;;;;;23.32;32.20;100874.78;5067781;28;1114;-14
2023/03/24 04:16:16;;;;;;;;;;;;;;;24.29;30.88;100873.16;5070237;28;1155;-14
2023/03/24 04:19:08;;;;;;;;;;;;;;;25.90;28.45;100891.09;5059234;28;1979;-15
2023/03/24 04:21:47;;;;;;;;;;;;;;;26.14;27.07;100895.59;5063987;28;1380;-14
2023/03/24 04:24:16;;;;;;;;;;;;;;;26.27;26.92;100896.91;5067761;28;1155;-14
2023/03/24 04:26:49;;;;;;;;;;;;;;;26.50;26.18;100901.56;5065245;28;1101;-14
2023/03/24 04:29:21;;;;;;;;;;;;;;;26.56;26.21;100900.03;5068986;28;1205;-14
2023/03/24 04:31:50;;;;;;;;;;;;;;;27.11;25.56;100897.41;5076452;28;1381;-14
2023/03/24 04:34:16;;;;;;;;;;;;;;;27.60;25.08;100903.41;5053808;28;1225;-14
2023/03/24 04:36:45;;;;;;;;;;;;;;;26.80;24.50;100903.59;5097620;28;1071;-14
2023/03/24 04:39:27;;;;;;;;;;;;;;;26.57;24.29;100907.09;5083245;28;1894;-14
2023/03/24 04:41:55;;;;;;;;;;;;;;;26.86;23.45;100909.13;5065465;28;1165;-14
2023/03/24 04:44:24;;;;;;;;;;;;;;;26.67;23.65;100905.03;5070719;28;1242;-14
2023/03/24 04:47:23;;;;;;;;;;;;;;;26.75;23.21;100901.44;5020245;28;1332;-13
2023/03/24 04:50:05;;;;;;;;;;;;;;;26.97;23.21;100910.63;5071563;28;1008;-15
2023/03/24 04:52:31;;;;;;;;;;;;;;;26.46;24.08;100911.84;5064561;28;1274;-14
2023/03/24 04:54:59;;;;;;;;;;;;;;;24.49;25.37;100911.38;5078783;28;1095;-15
2023/03/24 04:57:25;;;;;;;;;;;;;;;23.80;26.26;100917.50;5064236;28;1012;-15
2023/03/24 04:59:58;;;;;;;;;;;;;;;23.55;25.82;100922.66;5078366;28;1913;-15
2023/03/24 05:02:24;;;;;;;;;;;;;;;25.35;26.24;100926.63;5078217;28;1230;-14
2023/03/24 05:05:13;;;;;;;;;;;;;;;25.50;24.93;100931.34;5074142;28;1254;-16
2023/03/24 05:07:43;;;;;;;;;;;;;;;24.63;24.76;100923.38;5074270;28;1123;-16
2023/03/24 05:10:12;;;;;;;;;;;;;;;24.38;24.02;100922.41;5072083;28;1288;-17
2023/03/24 05:12:47;;;;;;;;;;;;;;;22.79;25.44;100920.22;5057884;28;1506;-16
2023/03/24 05:15:13;;;;;;;;;;;;;;;21.69;26.59;100927.66;5091144;28;1071;-15
2023/03/24 05:17:40;;;;;;;;;;;;;;;21.55;27.81;100933.44;5076531;28;1300;-15
2023/03/24 05:20:09;;;;;;;;;;;;;;;21.38;27.71;100931.31;5075127;28;1883;-16
2023/03/24 05:22:36;;;;;;;;;;;;;;;20.17;28.91;100940.88;5075765;28;1273;-16
2023/03/24 05:25:02;;;;;;;;;;;;;;;22.68;26.47;100940.00;5066054;28;1508;-15
2023/03/24 05:27:27;;;;;;;;;;;;;;;25.41;22.98;100941.25;5082724;28;1046;-15
2023/03/24 05:29:53;;;;;;;;;;;;;;;26.20;22.00;100956.06;5078167;28;1365;-15
2023/03/24 05:32:22;;;;;;;;;;;;;;;26.12;22.54;100958.78;5064204;28;1253;-15
2023/03/24 05:34:48;;;;;;;;;;;;;;;25.39;23.43;100962.13;5082624;28;1099;-15
2023/03/24 05:37:16;;;;;;;;;;;;;;;25.34;23.54;100957.22;5096352;28;1066;-15
2023/03/24 05:39:45;;;;;;;;;;;;;;;25.04;24.07;100963.06;5068051;28;1913;-15
2023/03/24 05:42:30;;;;;;;;;;;;;;;24.79;24.44;100956.75;5071697;28;1186;-15
2023/03/24 05:44:59;;;;;;;;;;;;;;;24.80;24.44;100959.28;5068250;28;1276;-15
2023/03/24 05:47:26;;;;;;;;;;;;;;;25.06;23.83;100962.91;5078015;28;1271;-15
2023/03/24 05:49:52;;;;;;;;;;;;;;;24.93;23.86;100955.28;5064104;28;1451;-15
2023/03/24 05:52:19;;;;;;;;;;;;;;;25.42;23.29;100964.50;5078085;28;1282;-15
2023/03/24 05:54:50;;;;;;;;;;;;;;;26.53;22.17;100974.91;5071403;28;1407;-15
2023/03/24 05:57:22;;;;;;;;;;;;;;;26.32;22.62;100969.19;5066051;28;1658;-15
2023/03/24 06:00:17;;;;;;;;;;;;;;;26.82;21.68;100961.81;5064172;28;1969;-15
2023/03/24 06:03:03;;;;;;;;;;;;;;;26.40;23.14;100963.81;5068004;28;1197;-16
2023/03/24 06:05:44;;;;;;;;;;;;;;;25.27;24.01;100958.91;5068692;28;1186;-15
2023/03/24 06:08:11;;;;;;;;;;;;;;;26.33;23.74;100971.75;5076553;28;1199;-16
2023/03/24 06:10:37;;;;;;;;;;;;;;;26.44;23.07;100969.72;5070299;28;1585;-15
2023/03/24 06:13:03;;;;;;;;;;;;;;;26.35;22.93;100969.72;5057795;28;1240;-16
2023/03/24 06:15:30;;;;;;;;;;;;;;;26.06;23.67;100972.97;5077280;28;1258;-16
2023/03/24 06:18:12;;;;;;;;;;;;;;;26.48;23.30;100971.88;5063163;28;1905;-15
2023/03/24 06:20:40;;;;;;;;;;;;;;;26.25;23.10;100969.88;5091007;28;1247;-16
2023/03/24 06:23:09;;;;;;;;;;;;;;;24.75;25.24;100966.97;5057865;28;1155;-15
2023/03/24 06:26:08;;;;;;;;;;;;;;;26.14;24.35;100964.84;5061927;28;1414;-15
2023/03/24 06:28:33;;;;;;;;;;;;;;;27.01;23.16;100968.66;5059512;28;1258;-16
2023/03/24 06:31:03;;;;;;;;;;;;;;;27.43;22.41;100965.69;5057690;28;1467;-15
2023/03/24 06:33:33;;;;;;;;;;;;;;;26.93;22.93;100970.50;5060760;28;1215;-16
2023/03/24 06:36:00;;;;;;;;;;;;;;;26.21;23.64;100965.84;5074445;28;1274;-15
2023/03/24 06:38:26;;;;;;;;;;;;;;;25.84;24.46;100964.56;5068394;28;1906;-16
2023/03/24 06:40:52;;;;;;;;;;;;;;;25.46;25.33;100959.63;5078959;28;1135;-16
2023/03/24 06:43:18;;;;;;;;;;;;;;;25.66;25.22;100957.47;5077472;28;1639;-16
2023/03/24 06:45:44;;;;;;;;;;;;;;;25.44;25.99;100955.22;5071823;28;1119;-16
2023/03/24 06:48:15;;;;;;;;;;;;;;;26.55;24.52;100963.09;5064860;28;1264;-16
2023/03/24 06:50:41;;;;;;;;;;;;;;;26.27;25.02;100957.09;5070101;28;1242;-16
2023/03/24 06:53:08;;;;;;;;;;;;;;;25.68;26.12;100963.53;5080672;28;1083;-16
2023/03/24 06:55:35;;;;;;;;;;;;;;;25.92;25.70;100964.53;5080722;28;1243;-16
2023/03/24 06:58:01;;;;;;;;;;;;;;;25.44;26.25;100965.19;5067149;28;1980;-16
2023/03/24 07:00:33;;;;;;;;;;;;;;;25.86;25.71;100960.66;5096049;28;1070;-17
2023/03/24 07:03:21;;;;;;;;;;;;;;;26.55;25.32;100957.69;5076229;28;1303;-16
2023/03/24 07:06:06;;;;;;;;;;;;;;;25.95;25.94;100964.19;5060940;28;1310;-15
2023/03/24 07:08:32;;;;;;;;;;;;;;;26.24;25.67;100962.78;5060955;28;1150;-15
2023/03/24 07:10:58;;;;;;;;;;;;;;;26.74;25.09;100954.56;5085380;28;890;-16
2023/03/24 07:13:24;;;;;;;;;;;;;;;26.41;25.72;100954.69;5080495;28;1135;-16
2023/03/24 07:15:52;;;;;;;;;;;;;;;26.04;26.10;100962.34;5060691;28;1276;-16
2023/03/24 07:18:18;;;;;;;;;;;;;;;26.12;26.06;100964.19;5059862;28;1902;-16
2023/03/24 07:20:48;;;;;;;;;;;;;;;26.11;26.71;100960.63;5089662;28;1214;-16
2023/03/24 07:23:18;;;;;;;;;;;;;;;26.22;26.51;100959.44;5064579;28;1139;-17
2023/03/24 07:25:58;;;;;;;;;;;;;;;25.60;26.94;100958.97;5078612;28;1050;-16
2023/03/24 07:28:47;;;;;;;;;;;;;;;25.49;27.33;100959.28;5084326;28;1078;-17
2023/03/24 07:31:21;;;;;;;;;;;;;;;26.17;26.41;100953.72;5075202;28;1110;-16
2023/03/24 07:33:52;;;;;;;;;;;;;;;26.39;26.10;100957.56;5060203;28;1155;-17
2023/03/24 07:36:17;;;;;;;;;;;;;;;25.84;27.05;100959.97;5079593;28;1261;-17
2023/03/24 07:38:43;;;;;;;;;;;;;;;26.27;26.43;100961.63;5092865;28;1913;-16
2023/03/24 07:41:14;;;;;;;;;;;;;;;26.06;26.71;100954.09;5072791;28;1198;-15
2023/03/24 07:43:46;;;;;;;;;;;;;;;26.25;26.13;100956.41;5069154;28;1102;-15
2023/03/24 07:46:37;;;;;;;;;;;;;;;26.15;26.76;100953.91;5062040;28;1190;-16
2023/03/24 07:49:03;;;;;;;;;;;;;;;26.05;26.78;100953.25;5068205;28;1381;-15
2023/03/24 07:51:29;;;;;;;;;;;;;;;26.40;26.34;100955.72;5080107;28;1117;-16
2023/03/24 07:54:24;;;;;;;;;;;;;;;26.21;26.70;100954.22;5081842;28;1232;-16
2023/03/24 07:56:50;;;;;;;;;;;;;;;26.29;26.72;100946.13;5065685;28;1249;-15
2023/03/24 07:59:17;;;;;;;;;;;;;;;26.04;26.84;100957.78;5064662;28;1910;-17
2023/03/24 08:01:49;;;;;;;;;;;;;;;26.22;26.49;100956.75;5090854;28;1099;-16
2023/03/24 08:04:17;;;;;;;;;;;;;;;25.44;27.49;100955.22;5061091;28;1130;-16
2023/03/24 08:07:02;;;;;;;;;;;;;;;25.65;27.25;100945.00;5091148;28;1297;-16
2023/03/24 08:09:28;;;;;;;;;;;;;;;26.24;26.63;100951.19;5066984;28;1150;-16
2023/03/24 08:11:53;;;;;;;;;;;;;;;26.25;26.67;100950.16;5088667;28;1099;-17
2023/03/24 08:14:19;;;;;;;;;;;;;;;26.40;27.02;100942.22;5088737;28;1242;-17
2023/03/24 08:16:45;;;;;;;;;;;;;;;26.26;26.89;100952.69;5092379;28;1452;-19
2023/03/24 08:19:10;;;;;;;;;;;;;;;26.32;26.76;100940.38;5090303;28;1970;-16
2023/03/24 08:21:36;;;;;;;;;;;;;;;26.22;26.72;100940.56;5080525;28;1293;-16
2023/03/24 08:24:02;;;;;;;;;;;;;;;26.76;26.35;100947.16;5079547;28;1281;-16
2023/03/24 08:26:27;;;;;;;;;;;;;;;26.39;26.50;100941.38;5079835;28;1261;-16
2023/03/24 08:28:53;;;;;;;;;;;;;;;26.52;26.71;100940.84;5090138;28;1285;-16
2023/03/24 08:31:18;;;;;;;;;;;;;;;26.46;27.01;100944.22;5083675;28;1273;-17
2023/03/24 08:33:44;;;;;;;;;;;;;;;26.39;26.68;100937.88;5083232;28;1158;-16
2023/03/24 08:36:09;;;;;;;;;;;;;;;26.33;26.88;100925.91;5087374;28;1191;-16
2023/03/24 08:38:37;;;;;;;;;;;;;;;26.63;26.72;100923.44;5076725;28;1907;-16
2023/03/24 08:41:05;;;;;;;;;;;;;;;26.44;26.55;100919.31;5084745;28;1355;-16
2023/03/24 08:43:31;;;;;;;;;;;;;;;26.46;26.61;100916.44;5083729;28;1245;-16
2023/03/24 08:45:57;;;;;;;;;;;;;;;26.67;26.82;100921.22;5087902;28;1178;-16
2023/03/24 08:48:22;;;;;;;;;;;;;;;26.84;26.33;100930.06;5093101;28;1317;-16
2023/03/24 08:50:48;;;;;;;;;;;;;;;26.81;26.87;100927.72;5093604;28;1254;-17
2023/03/24 08:53:13;;;;;;;;;;;;;;;27.01;26.09;100929.97;5093831;28;1257;-16
2023/03/24 08:55:41;;;;;;;;;;;;;;;26.88;26.62;100926.00;5078697;28;1225;-16
2023/03/24 08:58:08;;;;;;;;;;;;;;;27.07;26.39;100933.84;5087827;28;1906;-16
2023/03/24 09:00:34;;;;;;;;;;;;;;;27.00;27.05;100928.31;5059498;28;1302;-16
2023/03/24 09:02:59;;;;;;;;;;;;;;;27.21;26.14;100929.56;5076770;28;1138;-17
2023/03/24 09:05:25;;;;;;;;;;;;;;;27.00;26.39;100923.75;5076818;28;1019;-16
2023/03/24 09:07:51;;;;;;;;;;;;;;;27.07;26.45;100928.47;5061415;28;1261;-17
2023/03/24 09:10:17;;;;;;;;;;;;;;;27.02;26.85;100926.31;5082832;28;1222;-16
2023/03/24 09:12:42;;;;;;;;;;;;;;;27.14;26.57;100929.44;5082541;28;1269;-16
2023/03/24 09:15:08;;;;;;;;;;;;;;;27.29;26.07;100926.81;5076400;28;1427;-17
2023/03/24 09:17:34;;;;;;;;;;;;;;;27.34;25.99;100913.56;5074637;28;1383;-16
2023/03/24 09:19:59;;;;;;;;;;;;;;;27.45;26.07;100922.28;5086397;28;1968;-17
2023/03/24 09:22:26;;;;;;;;;;;;;;;27.28;26.47;100924.28;5090521;28;1242;-16
2023/03/24 09:24:52;;;;;;;;;;;;;;;27.12;26.50;100913.41;5082968;28;1035;-16
2023/03/24 09:27:17;;;;;;;;;;;;;;;27.21;26.77;100916.06;5086325;28;1217;-16
2023/03/24 09:29:43;;;;;;;;;;;;;;;27.36;26.62;100916.94;5089712;28;1131;-16
2023/03/24 09:32:08;;;;;;;;;;;;;;;27.21;26.83;100905.25;5086170;28;1170;-14
2023/03/24 09:34:35;;;;;;;;;;;;;;;27.02;26.97;100902.84;5083918;28;1126;-16
2023/03/24 09:37:00;;;;;;;;;;;;;;;26.90;26.84;100906.94;5077560;28;1043;-16
2023/03/24 09:39:26;;;;;;;;;;;;;;;27.08;26.89;100900.44;5075782;28;1906;-20
2023/03/24 09:41:52;;;;;;;;;;;;;;;27.29;26.08;100905.19;5075511;28;1095;-16
2023/03/24 09:44:28;;;;;;;;;;;;;;;26.99;26.47;100897.75;5058232;28;1160;-17
2023/03/24 09:47:04;;;;;;;;;;;;;;;27.08;26.60;100895.03;5096399;28;1078;-16
2023/03/24 09:49:31;;;;;;;;;;;;;;;27.17;26.63;100901.22;5079958;28;1162;-17
2023/03/24 09:52:06;;;;;;;;;;;;;;;27.04;27.05;100894.56;5076084;28;1135;-16
2023/03/24 09:54:50;;;;;;;;;;;;;;;26.98;26.67;100887.97;5088184;28;1271;-18
2023/03/24 09:57:45;;;;;;;;;;;;;;;26.62;27.00;100889.38;5081971;28;1027;-17
2023/03/24 10:00:21;;;;;;;;;;;;;;;26.78;26.87;100887.59;5068185;28;1979;-17
2023/03/24 10:02:47;;;;;;;;;;;;;;;26.73;27.07;100887.28;5087613;28;1052;-16
2023/03/24 10:05:23;;;;;;;;;;;;;;;26.71;27.05;100879.38;5059658;28;1138;-16
2023/03/24 10:08:20;;;;;;;;;;;;;;;26.44;27.43;100878.00;5058117;28;1191;-17
2023/03/24 10:10:52;;;;;;;;;;;;;;;26.48;27.83;100876.63;5046538;28;1647;-16
2023/03/24 10:13:24;;;;;;;;;;;;;;;26.17;27.90;100880.94;5096618;28;1055;-16
2023/03/24 10:16:08;;;;;;;;;;;;;;;26.51;27.50;100873.56;5082081;28;1172;-16
2023/03/24 10:18:36;;;;;;;;;;;;;;;26.67;27.07;100871.81;5092549;28;1964;-16
2023/03/24 10:21:08;;;;;;;;;;;;;;;26.64;27.21;100879.22;5076110;28;1024;-16
2023/03/24 10:23:36;;;;;;;;;;;;;;;26.70;26.88;100877.69;5099224;28;881;-16
2023/03/24 10:26:04;;;;;;;;;;;;;;;27.01;26.41;100874.16;5099180;28;1300;-17
2023/03/24 10:28:46;;;;;;;;;;;;;;;26.66;26.74;100870.97;5091648;28;1205;-16
2023/03/24 10:31:13;;;;;;;;;;;;;;;26.29;27.47;100871.44;5082639;28;1038;-15
2023/03/24 10:33:40;;;;;;;;;;;;;;;26.69;26.80;100876.03;5089888;28;1016;-16
2023/03/24 10:36:08;;;;;;;;;;;;;;;26.82;26.76;100875.44;5071854;28;1038;-16
2023/03/24 10:38:33;;;;;;;;;;;;;;;26.93;26.41;100867.94;5091239;28;1979;-17
2023/03/24 10:42:34;;;;;;;;;;;;;;;26.58;27.00;100862.91;5048509;27;1438391;-22
2023/03/24 10:44:59;;;;;;;;;;;;;;;26.59;27.42;100870.00;5073139;28;1249;-22
2023/03/24 10:47:25;;;;;;;;;;;;;;;26.62;27.28;100848.91;5069649;28;977;-23
2023/03/24 10:49:52;;;;;;;;;;;;;;;26.65;26.90;100864.75;5039627;28;1116;-23
2023/03/24 10:52:18;;;;;;;;;;;;;;;26.62;27.17;100862.41;5053314;28;1079;-25
2023/03/24 10:54:54;;;;;;;;;;;;;;;26.64;27.21;100862.22;5066010;28;1175;-23
2023/03/24 10:57:19;;;;;;;;;;;;;;;26.69;26.94;100853.59;5039214;28;1058;-23
2023/03/24 10:59:48;;;;;;;;;;;;;;;26.43;27.31;100847.47;5066890;28;1136;-22
2023/03/24 11:02:20;;;;;;;;;;;;;;;26.65;26.96;100839.59;5065402;28;1910;-20
2023/03/24 11:04:56;;;;;;;;;;;;;;;26.72;27.21;100845.13;5055299;28;1059;-20
2023/03/24 11:07:22;;;;;;;;;;;;;;;26.58;26.93;100842.19;5071891;28;1163;-14
2023/03/24 11:09:58;;;;;;;;;;;;;;;26.59;27.09;100843.84;5057468;28;902;-14
2023/03/24 11:12:24;;;;;;;;;;;;;;;26.52;27.09;100845.59;5047293;28;853;-14
2023/03/24 11:14:52;;;;;;;;;;;;;;;26.61;26.97;100843.69;5052764;28;1108;-15
2023/03/24 11:17:17;;;;;;;;;;;;;;;26.64;27.07;100848.72;5061894;28;1140;-14
2023/03/24 11:19:50;;;;;;;;;;;;;;;26.69;27.09;100840.09;5039664;28;1412;-13
2023/03/24 11:22:15;;;;;;;;;;;;;;;26.70;26.73;100841.78;5053000;28;1995;-13
2023/03/24 11:24:41;;;;;;;;;;;;;;;26.73;26.54;100836.88;5068642;28;918;-14
2023/03/24 11:27:08;;;;;;;;;;;;;;;26.62;26.79;100829.19;5046133;28;1020;-14
2023/03/24 11:29:37;;;;;;;;;;;;;;;26.52;26.89;100830.25;5050631;28;1052;-14
2023/03/24 11:32:04;;;;;;;;;;;;;;;26.56;26.80;100824.50;5038976;28;1219;-14
2023/03/24 11:34:41;;;;;;;;;;;;;;;26.71;26.72;100832.66;5040284;28;1208;-13
2023/03/24 11:37:15;;;;;;;;;;;;;;;26.88;26.37;100825.28;5034791;28;1469;-14
2023/03/24 11:39:41;;;;;;;;;;;;;;;26.75;26.81;100818.63;5064151;28;1222;-13
2023/03/24 11:42:10;;;;;;;;;;;;;;;26.89;26.70;100822.41;5061059;28;1918;-15
2023/03/24 11:44:43;;;;;;;;;;;;;;;27.02;26.13;100812.91;5056776;28;1098;-13
2023/03/24 11:47:16;;;;;;;;;;;;;;;26.86;26.65;100820.06;5062190;28;1140;-14
2023/03/24 11:49:44;;;;;;;;;;;;;;;26.81;26.35;100821.66;5041571;28;1199;-13
2023/03/24 11:52:18;;;;;;;;;;;;;;;26.78;26.52;100820.97;5040069;28;1072;-14
2023/03/24 11:54:43;;;;;;;;;;;;;;;26.65;26.95;100808.09;5011094;28;1182;-14
2023/03/24 11:57:10;;;;;;;;;;;;;;;26.84;26.79;100808.59;5028616;28;1192;-14
2023/03/24 11:59:39;;;;;;;;;;;;;;;26.96;26.55;100802.81;5034104;28;1152;-14
2023/03/24 12:02:09;;;;;;;;;;;;;;;26.84;26.31;100805.09;5037026;28;1985;-14
2023/03/24 12:04:45;;;;;;;;;;;;;;;26.80;26.81;100809.16;5065793;28;1315;-13
2023/03/24 12:07:16;;;;;;;;;;;;;;;26.70;26.77;100804.00;5047960;28;767;-14
2023/03/24 12:09:42;;;;;;;;;;;;;;;27.24;26.03;100807.69;5045974;28;1052;-14
2023/03/24 12:12:14;;;;;;;;;;;;;;;27.00;26.16;100812.22;5051122;28;834;-15
2023/03/24 12:14:58;;;;;;;;;;;;;;;27.04;26.85;100804.63;5052354;28;1040;-13
2023/03/24 12:17:24;;;;;;;;;;;;;;;27.02;26.58;100811.06;5050813;28;1188;-14
2023/03/24 12:20:03;;;;;;;;;;;;;;;26.73;27.08;100809.88;5035301;28;1060;-13
2023/03/24 12:22:29;;;;;;;;;;;;;;;26.69;26.70;100802.31;5034678;28;1983;-13
2023/03/24 12:25:02;;;;;;;;;;;;;;;27.02;26.51;100794.88;5061767;28;1391;-14
2023/03/24 12:27:27;;;;;;;;;;;;;;;26.89;26.43;100803.50;5044068;28;1025;-13
2023/03/24 12:30:00;;;;;;;;;;;;;;;27.00;26.46;100791.47;5044128;28;1219;-14
2023/03/24 12:32:28;;;;;;;;;;;;;;;26.96;26.17;100790.13;5038626;28;1056;-13
2023/03/24 12:35:04;;;;;;;;;;;;;;;26.71;26.61;100787.63;5046243;28;1126;-13
2023/03/24 12:37:42;;;;;;;;;;;;;;;26.80;26.79;100777.63;5051839;28;996;-14
2023/03/24 12:40:10;;;;;;;;;;;;;;;26.89;26.70;100781.09;5042373;28;1195;-14
2023/03/24 12:42:49;;;;;;;;;;;;;;;26.89;26.44;100771.13;5046832;28;1111;-14
2023/03/24 12:45:36;;;;;;;;;;;;;;;26.94;26.70;100780.56;5043299;28;1325;-14
2023/03/24 12:48:01;;;;;;;;;;;;;;;27.05;26.50;100774.75;5035912;28;1144;-14
2023/03/24 12:50:36;;;;;;;;;;;;;;;27.29;25.92;100777.41;5050788;28;928;-13
2023/03/24 12:53:15;;;;;;;;;;;;;;;27.27;26.04;100777.59;5028240;28;1020;-15
2023/03/24 12:55:47;;;;;;;;;;;;;;;27.28;25.88;100773.03;5037984;28;1013;-14
2023/03/24 12:58:19;;;;;;;;;;;;;;;27.05;26.24;100777.44;5032950;28;1180;-14
2023/03/24 13:00:44;;;;;;;;;;;;;;;27.23;26.20;100766.31;5038399;28;1906;-14
2023/03/24 13:03:11;;;;;;;;;;;;;;;26.65;25.84;100761.38;5050450;28;1108;-14
2023/03/24 13:05:44;;;;;;;;;;;;;;;26.78;26.05;100763.47;5029446;28;1030;-14
2023/03/24 13:08:15;;;;;;;;;;;;;;;27.22;25.86;100753.84;5039409;28;1127;-14